Time;durP1;ratioP1;P1;durP2;ratioP2;P2;SDS_P1;SDS_P2;PMS_P1;PMS_P2;Temp;Humidity;BMP_temperature;BMP_pressure;BME280_temperature;BME280_humidity;BME280_pressure;Samples;Min_cycle;Max_cycle;Signal;HPM_P1;HPM_P2
2023/09/27 00:05:16;;;;;;;6.82;1.60;;;;;;;20.35;49.48;101924.06;16114151;19;131185;-52
2023/09/27 00:10:39;;;;;;;6.38;2.28;;;;;;;20.36;49.27;101927.66;16116225;19;129548;-51
2023/09/27 00:16:00;;;;;;;4.60;1.63;;;;;;;20.34;49.55;101919.56;16116192;19;129686;-52
2023/09/27 00:21:23;;;;;;;4.25;1.75;;;;;;;20.35;49.52;101923.19;16116894;19;129352;-52
2023/09/27 00:26:44;;;;;;;5.55;1.67;;;;;;;20.34;49.54;101921.50;16116211;19;129395;-48
2023/09/27 00:32:06;;;;;;;5.10;1.90;;;;;;;20.34;49.72;101929.81;16112803;19;129580;-50
2023/09/27 00:37:29;;;;;;;4.25;1.83;;;;;;;20.32;49.70;101918.09;16112904;19;129470;-50
2023/09/27 00:42:51;;;;;;;4.15;1.65;;;;;;;20.31;49.66;101922.81;16111887;19;129828;-52
2023/09/27 00:48:13;;;;;;;3.15;1.70;;;;;;;20.31;49.46;101916.41;16115508;19;129772;-53
2023/09/27 00:53:37;;;;;;;4.93;1.70;;;;;;;20.32;49.54;101901.41;16114189;19;129879;-49
2023/09/27 00:58:59;;;;;;;2.75;1.63;;;;;;;20.29;49.43;101892.50;16113712;19;129741;-51
2023/09/27 01:04:22;;;;;;;4.32;1.63;;;;;;;20.28;49.33;101863.00;16109993;19;131489;-55
2023/09/27 01:09:44;;;;;;;3.88;1.52;;;;;;;20.28;49.48;101867.69;16109975;19;130471;-55
2023/09/27 01:15:07;;;;;;;3.50;1.58;;;;;;;20.27;49.32;101861.31;16115142;19;129122;-53
2023/09/27 01:20:32;;;;;;;2.80;1.50;;;;;;;20.27;49.04;101872.41;16107457;19;130795;-50
2023/09/27 01:25:59;;;;;;;3.03;1.63;;;;;;;20.27;49.47;101885.44;16109755;19;131251;-50
2023/09/27 01:31:21;;;;;;;3.85;1.60;;;;;;;20.24;49.08;101900.66;16108956;19;130290;-54
2023/09/27 01:36:43;;;;;;;3.08;1.50;;;;;;;20.24;49.32;101897.88;16109572;19;129798;-49
2023/09/27 01:42:05;;;;;;;3.33;1.42;;;;;;;20.24;49.08;101897.06;16109968;19;129543;-54
2023/09/27 01:47:27;;;;;;;3.03;1.30;;;;;;;20.24;49.15;101895.09;16106237;19;129514;-53
2023/09/27 01:52:53;;;;;;;2.67;1.40;;;;;;;20.23;49.07;101881.47;16122074;19;131002;-54
2023/09/27 01:58:15;;;;;;;4.28;1.50;;;;;;;20.22;49.38;101891.72;16122953;19;130067;-48
2023/09/27 02:03:37;;;;;;;2.95;1.38;;;;;;;20.21;49.25;101884.44;16124364;19;130189;-52
2023/09/27 02:09:03;;;;;;;2.25;1.35;;;;;;;20.21;49.29;101878.91;16123999;19;130723;-53
2023/09/27 02:14:25;;;;;;;3.95;1.50;;;;;;;20.21;49.20;101887.22;16125158;19;130967;-51
2023/09/27 02:19:47;;;;;;;2.78;1.40;;;;;;;20.21;49.21;101883.63;16124307;19;129702;-55
2023/09/27 02:25:11;;;;;;;6.43;1.50;;;;;;;20.20;48.96;101893.03;16126061;19;130750;-50
2023/09/27 02:30:33;;;;;;;3.25;1.40;;;;;;;20.20;49.32;101882.75;16120734;19;129717;-50
2023/09/27 02:35:55;;;;;;;2.20;1.33;;;;;;;20.19;49.24;101883.00;16124800;19;129725;-53
2023/09/27 02:41:17;;;;;;;2.15;1.30;;;;;;;20.19;49.15;101881.06;16124104;19;131412;-54
2023/09/27 02:46:43;;;;;;;3.42;1.67;;;;;;;20.18;49.30;101873.84;16119167;19;129296;-55
2023/09/27 02:52:09;;;;;;;3.58;1.52;;;;;;;20.18;48.93;101878.53;16121364;19;130923;-53
2023/09/27 02:57:31;;;;;;;2.72;1.60;;;;;;;20.17;49.37;101888.81;16122857;19;129624;-54
2023/09/27 03:02:54;;;;;;;2.25;1.17;;;;;;;20.17;49.38;101894.34;16113250;19;131087;-51
2023/09/27 03:08:16;;;;;;;2.28;1.20;;;;;;;20.18;49.31;101909.09;16119185;19;129754;-51
2023/09/27 03:13:40;;;;;;;2.75;1.23;;;;;;;20.17;49.34;101919.38;16115356;19;129488;-52
2023/09/27 03:19:05;;;;;;;2.58;1.40;;;;;;;20.16;48.97;101901.00;16117396;19;129655;-53
2023/09/27 03:24:29;;;;;;;2.88;1.20;;;;;;;20.15;49.13;101885.41;16117551;19;130442;-53
2023/09/27 03:29:51;;;;;;;2.65;1.15;;;;;;;20.14;49.32;101872.59;16119330;19;131258;-56
2023/09/27 03:35:13;;;;;;;3.20;1.45;;;;;;;20.13;48.99;101887.56;16115832;19;129730;-52
2023/09/27 03:40:35;;;;;;;2.83;1.38;;;;;;;20.13;49.11;101884.78;16117734;19;129232;-54
2023/09/27 03:46:03;;;;;;;1.63;0.95;;;;;;;20.12;48.90;101892.25;16116563;19;130362;-53
2023/09/27 03:51:25;;;;;;;3.63;1.50;;;;;;;20.13;49.35;101882.00;16116736;19;130567;-49
2023/09/27 03:56:47;;;;;;;2.45;1.27;;;;;;;20.11;49.36;101892.50;16118733;19;130461;-54
2023/09/27 04:02:09;;;;;;;2.00;1.15;;;;;;;20.10;49.27;101905.56;16116061;19;130715;-53
2023/09/27 04:07:31;;;;;;;3.35;1.10;;;;;;;20.10;48.89;101904.69;16114768;19;130581;-54
2023/09/27 04:12:53;;;;;;;3.38;1.60;;;;;;;20.11;49.02;101912.81;16114285;19;129835;-52
2023/09/27 04:18:16;;;;;;;2.05;1.10;;;;;;;20.10;49.23;101893.56;16111911;19;130207;-54
2023/09/27 04:23:38;;;;;;;3.25;1.30;;;;;;;20.10;48.92;101910.25;16112936;19;129558;-52
2023/09/27 04:29:00;;;;;;;2.80;1.20;;;;;;;20.08;49.05;101906.84;16114842;19;129870;-56
2023/09/27 04:34:23;;;;;;;2.40;1.15;;;;;;;20.08;49.04;101906.84;16114528;19;130981;-55
2023/09/27 04:39:45;;;;;;;1.67;1.30;;;;;;;20.07;49.26;101910.69;16115571;19;130519;-54
2023/09/27 04:45:09;;;;;;;1.60;0.90;;;;;;;20.07;49.20;101902.38;16115009;19;130662;-54
2023/09/27 04:50:31;;;;;;;2.60;1.42;;;;;;;20.07;49.05;101899.59;16111177;19;129841;-57
2023/09/27 04:55:53;;;;;;;1.55;1.00;;;;;;;20.07;49.08;101896.81;16109940;19;129776;-48
2023/09/27 05:01:16;;;;;;;2.10;1.20;;;;;;;20.06;49.26;101892.38;16113841;19;129450;-50
2023/09/27 05:06:39;;;;;;;1.27;0.90;;;;;;;20.05;48.83;101899.84;16113323;19;130185;-52
2023/09/27 05:12:00;;;;;;;1.48;1.00;;;;;;;20.03;49.30;101903.94;16109740;19;130397;-52
2023/09/27 05:17:24;;;;;;;4.68;1.20;;;;;;;20.06;49.02;101895.97;16116131;19;132106;-53
2023/09/27 05:22:46;;;;;;;6.88;1.30;;;;;;;20.08;48.90;101895.72;16110170;19;130713;-55
2023/09/27 05:28:09;;;;;;;3.50;1.25;;;;;;;20.10;49.10;101882.47;16130473;19;130291;-53
2023/09/27 05:33:31;;;;;;;2.70;1.20;;;;;;;20.11;48.77;101879.47;16128874;19;131723;-54
2023/09/27 05:38:53;;;;;;;4.38;1.25;;;;;;;20.11;49.10;101878.59;16129426;19;130130;-52
2023/09/27 05:44:16;;;;;;;2.25;0.80;;;;;;;20.09;49.10;101876.06;16129726;19;130331;-56
2023/09/27 05:49:38;;;;;;;3.00;0.90;;;;;;;20.08;48.86;101860.50;16127395;19;130037;-52
2023/09/27 05:55:05;;;;;;;2.28;0.82;;;;;;;20.07;48.68;101847.69;16122141;19;130184;-56
2023/09/27 06:00:31;;;;;;;4.47;1.15;;;;;;;20.07;48.87;101838.47;16127414;19;133379;-54
2023/09/27 06:05:54;;;;;;;4.70;0.90;;;;;;;20.05;48.91;101849.00;16128958;19;129709;-55
2023/09/27 06:11:16;;;;;;;4.05;1.05;;;;;;;20.07;48.67;101838.47;16126458;19;131828;-55
2023/09/27 06:16:39;;;;;;;2.45;1.08;;;;;;;20.12;48.90;101856.13;16122921;19;129460;-55
2023/09/27 06:22:04;;;;;;;4.65;1.08;;;;;;;20.18;48.95;101853.53;16123109;19;129280;-52
2023/09/27 06:27:26;;;;;;;4.78;1.15;;;;;;;20.18;48.87;101859.94;16125706;19;129430;-53
2023/09/27 06:32:49;;;;;;;8.35;1.05;;;;;;;20.23;48.85;101864.78;16123389;19;130705;-50
2023/09/27 06:38:13;;;;;;;7.97;1.65;;;;;;;20.26;48.61;101865.16;16125120;19;131864;-53
2023/09/27 06:43:35;;;;;;;6.10;1.30;;;;;;;20.27;48.10;101857.66;16121111;19;129367;-53
2023/09/27 06:48:58;;;;;;;9.20;1.42;;;;;;;20.26;48.46;101848.50;16122592;19;129453;-57
2023/09/27 06:54:21;;;;;;;5.03;1.42;;;;;;;20.24;47.97;101859.00;16122459;19;129584;-53
2023/09/27 06:59:43;;;;;;;11.02;1.80;;;;;;;20.24;48.04;101856.22;16122165;19;131847;-54
2023/09/27 07:05:06;;;;;;;8.57;1.40;;;;;;;20.23;48.01;101879.53;16125765;19;129893;-51
2023/09/27 07:10:28;;;;;;;7.90;1.70;;;;;;;20.24;48.30;101866.50;16125319;19;129681;-55
2023/09/27 07:15:50;;;;;;;4.20;1.38;;;;;;;20.24;48.07;101870.09;16124069;19;129816;-48
2023/09/27 07:21:12;;;;;;;3.88;1.20;;;;;;;20.26;47.84;101854.03;16123039;19;129324;-55
2023/09/27 07:26:34;;;;;;;4.43;1.30;;;;;;;20.31;47.88;101875.56;16113904;19;129956;-54
2023/09/27 07:31:57;;;;;;;4.38;1.33;;;;;;;20.36;47.78;101905.44;16122809;19;130886;-51
2023/09/27 07:37:19;;;;;;;3.38;1.30;;;;;;;20.38;47.63;101895.78;16117261;19;129542;-52
2023/09/27 07:42:43;;;;;;;3.53;1.33;;;;;;;20.43;47.81;101900.66;16117918;19;130361;-55
2023/09/27 07:48:06;;;;;;;6.78;1.48;;;;;;;20.47;47.64;101895.47;16111738;19;129398;-53
2023/09/27 07:53:28;;;;;;;3.33;1.13;;;;;;;20.53;47.32;101897.28;16118479;19;129675;-59
2023/09/27 07:58:51;;;;;;;2.10;1.20;;;;;;;20.57;47.21;101893.78;16116630;19;130154;-51
2023/09/27 08:04:15;;;;;;;1.65;1.10;;;;;;;20.69;47.27;101901.31;16111470;19;130224;-52
2023/09/27 08:09:38;;;;;;;3.47;1.13;;;;;;;21.13;46.68;101882.50;16117796;19;129721;-55
2023/09/27 08:15:06;;;;;;;3.10;1.23;;;;;;;23.00;43.40;101878.88;16110519;19;129942;-56
2023/09/27 08:20:28;;;;;;;3.17;1.10;;;;;;;25.25;39.40;101874.66;16111267;19;130156;-55
2023/09/27 08:25:52;;;;;;;2.05;1.10;;;;;;;25.90;38.02;101863.28;16119978;19;130085;-54
2023/09/27 08:31:14;;;;;;;3.47;1.20;;;;;;;24.48;39.80;101872.00;16116790;19;129457;-52
2023/09/27 08:36:37;;;;;;;2.40;1.13;;;;;;;23.60;41.28;101870.91;16114753;19;129860;-52
2023/09/27 08:41:59;;;;;;;2.67;1.20;;;;;;;22.95;42.54;101865.69;16117895;19;129455;-54
2023/09/27 08:47:22;;;;;;;3.20;1.20;;;;;;;22.52;43.41;101869.94;16116102;19;129490;-54
2023/09/27 08:52:46;;;;;;;2.03;1.30;;;;;;;22.19;44.12;101863.13;16116212;19;129365;-54
2023/09/27 08:58:12;;;;;;;5.22;1.42;;;;;;;21.95;44.64;101857.63;16114938;19;130055;-52
2023/09/27 09:03:36;;;;;;;7.63;1.70;;;;;;;21.77;45.19;101856.72;16113855;19;129701;-54
2023/09/27 09:09:10;;;;;;;6.53;1.35;;;;;;;21.63;45.17;101856.13;16115881;19;131063;-52
2023/09/27 09:14:44;;;;;;;3.00;1.20;;;;;;;21.49;46.11;101833.25;16115108;19;131088;-54
2023/09/27 09:20:15;;;;;;;4.15;1.60;;;;;;;21.39;46.01;101844.13;16114667;19;130777;-54
2023/09/27 09:25:43;;;;;;;6.05;1.50;;;;;;;21.29;46.40;101843.91;16115677;19;131246;-52
2023/09/27 09:31:21;;;;;;;6.63;1.75;;;;;;;21.25;46.62;101845.47;16111609;19;130462;-54
2023/09/27 09:36:43;;;;;;;17.75;1.98;;;;;;;21.40;46.12;101840.28;16106976;19;129523;-54
2023/09/27 09:42:05;;;;;;;10.63;2.03;;;;;;;21.45;46.50;101832.00;16114521;19;129629;-50
2023/09/27 09:47:29;;;;;;;13.02;1.92;;;;;;;21.40;46.68;101839.41;16110238;19;130976;-54
2023/09/27 09:52:59;;;;;;;11.50;2.20;;;;;;;21.35;46.53;101835.41;16112247;19;129793;-50
2023/09/27 09:58:42;;;;;;;12.30;2.55;;;;;;;21.30;46.83;101828.88;16110728;19;129685;-50
2023/09/27 10:04:05;;;;;;;10.93;2.65;;;;;;;21.26;47.23;101822.13;16109943;19;129951;-53
2023/09/27 10:09:28;;;;;;;7.28;2.05;;;;;;;21.22;48.17;101818.97;16111952;19;130872;-55
2023/09/27 10:14:52;;;;;;;9.98;2.08;;;;;;;21.18;48.83;101821.38;16130903;19;129532;-54
2023/09/27 10:20:20;;;;;;;15.55;2.40;;;;;;;21.16;49.46;101826.34;16121162;19;130904;-52
2023/09/27 10:25:42;;;;;;;10.82;2.20;;;;;;;21.14;49.37;101831.31;16123200;19;130779;-53
2023/09/27 10:31:06;;;;;;;9.80;2.10;;;;;;;21.11;50.05;101815.09;16125700;19;131052;-51
2023/09/27 10:36:30;;;;;;;6.75;2.10;;;;;;;21.09;49.99;101813.66;16122275;19;130460;-57
2023/09/27 10:41:53;;;;;;;6.50;2.00;;;;;;;21.06;49.93;101778.78;16126157;19;134936;-54
2023/09/27 10:47:25;;;;;;;7.53;2.13;;;;;;;21.04;49.95;101775.44;16119639;19;130596;-54
2023/09/27 10:52:48;;;;;;;7.60;1.92;;;;;;;21.01;50.19;101765.63;16123765;19;130757;-55
2023/09/27 10:58:15;;;;;;;9.75;2.30;;;;;;;20.98;49.86;101756.91;16124898;19;131910;-55
2023/09/27 11:03:38;;;;;;;5.00;1.90;;;;;;;20.94;49.96;101753.78;16119928;19;132156;-54
2023/09/27 11:09:08;;;;;;;9.70;2.25;;;;;;;20.93;50.19;101745.66;16123012;19;130764;-54
2023/09/27 11:14:33;;;;;;;6.22;1.60;;;;;;;20.93;49.95;101734.53;16121326;19;129665;-53
2023/09/27 11:19:56;;;;;;;2.65;1.48;;;;;;;20.90;49.62;101719.19;16118458;19;130897;-51
2023/09/27 11:25:37;;;;;;;5.95;1.80;;;;;;;20.92;49.89;101705.06;16117982;19;131231;-52
2023/09/27 11:31:00;;;;;;;7.57;1.83;;;;;;;20.87;49.49;101697.41;16119060;19;129633;-54
2023/09/27 11:36:22;;;;;;;3.33;1.58;;;;;;;20.88;49.57;101687.97;16116132;19;130382;-54
2023/09/27 11:41:45;;;;;;;8.48;2.20;;;;;;;20.86;49.63;101693.78;16124523;19;130575;-52
2023/09/27 11:47:08;;;;;;;3.20;1.60;;;;;;;20.84;49.46;101672.88;16119932;19;133711;-51
2023/09/27 11:52:30;;;;;;;4.97;1.45;;;;;;;20.83;49.66;101680.38;16118836;19;130203;-50
2023/09/27 11:57:57;;;;;;;6.30;1.73;;;;;;;20.84;49.87;101662.59;16125455;19;130172;-51
2023/09/27 12:03:19;;;;;;;6.72;1.88;;;;;;;20.82;49.59;101650.88;16122972;19;130397;-54
2023/09/27 12:08:41;;;;;;;3.67;1.58;;;;;;;20.82;49.44;101634.19;16120609;19;129876;-54
2023/09/27 12:14:07;;;;;;;4.28;1.58;;;;;;;20.82;49.47;101636.97;16123163;19;129407;-52
2023/09/27 12:19:34;;;;;;;2.45;1.60;;;;;;;20.83;49.43;101615.56;16123508;19;130567;-53
2023/09/27 12:24:56;;;;;;;4.15;1.40;;;;;;;20.82;49.69;101603.59;16125384;19;129798;-55
2023/09/27 12:30:18;;;;;;;4.18;1.45;;;;;;;20.82;49.73;101600.81;16118776;19;129508;-51
2023/09/27 12:35:40;;;;;;;4.80;1.70;;;;;;;20.82;49.18;101581.34;16119426;19;129559;-49
2023/09/27 12:41:07;;;;;;;2.63;1.70;;;;;;;20.81;49.68;101582.44;16122664;19;131426;-54
2023/09/27 12:46:29;;;;;;;5.43;1.83;;;;;;;20.80;49.18;101585.47;16115938;19;129845;-52
2023/09/27 12:51:52;;;;;;;5.55;1.60;;;;;;;20.80;49.59;101591.84;16119342;19;129287;-53
2023/09/27 12:57:14;;;;;;;1.95;1.52;;;;;;;20.79;49.26;101587.41;16110821;19;131235;-52
2023/09/27 13:02:36;;;;;;;3.33;1.75;;;;;;;20.78;49.28;101594.06;16113189;19;130419;-48
2023/09/27 13:07:59;;;;;;;3.35;1.65;;;;;;;20.78;49.65;101594.06;16108828;19;131389;-51
2023/09/27 13:13:21;;;;;;;2.55;1.40;;;;;;;20.77;49.20;101577.59;16111373;19;131447;-48
2023/09/27 13:18:43;;;;;;;3.63;1.77;;;;;;;20.76;49.47;101587.91;16113615;19;129874;-47
2023/09/27 13:24:05;;;;;;;2.90;1.63;;;;;;;20.75;49.46;101577.84;16113246;19;131029;-53
2023/09/27 13:29:27;;;;;;;2.63;1.38;;;;;;;20.75;49.66;101577.84;16109704;19;134368;-55
2023/09/27 13:34:49;;;;;;;2.53;1.63;;;;;;;20.74;49.43;101570.56;16113280;19;129865;-54
2023/09/27 13:40:12;;;;;;;4.90;1.30;;;;;;;20.73;49.39;101558.63;16112991;19;129297;-54
2023/09/27 13:45:34;;;;;;;2.25;1.63;;;;;;;20.73;49.40;101552.19;16116682;19;129684;-51
2023/09/27 13:50:56;;;;;;;5.07;1.70;;;;;;;20.72;49.65;101561.63;16126297;19;132548;-55
2023/09/27 13:56:18;;;;;;;2.80;1.42;;;;;;;20.72;49.60;101542.16;16124434;19;130369;-52
2023/09/27 14:01:41;;;;;;;4.40;2.00;;;;;;;20.71;49.34;101526.56;16123274;19;130045;-54
2023/09/27 14:07:03;;;;;;;2.65;1.67;;;;;;;20.71;49.39;101532.13;16126236;19;130071;-53
2023/09/27 14:12:25;;;;;;;3.33;1.73;;;;;;;20.75;49.63;101534.22;16126271;19;130769;-54
2023/09/27 14:17:47;;;;;;;3.50;1.63;;;;;;;20.77;49.75;101531.19;16127394;19;133255;-50
2023/09/27 14:23:09;;;;;;;7.47;1.80;;;;;;;20.78;49.32;101521.78;16123557;19;130517;-54
2023/09/27 14:28:33;;;;;;;4.05;2.13;;;;;;;20.79;49.27;101522.59;16125622;19;129651;-53
2023/09/27 14:33:58;;;;;;;3.95;1.80;;;;;;;20.78;49.72;101504.22;16128667;19;130340;-53
2023/09/27 14:39:23;;;;;;;2.58;1.60;;;;;;;20.77;49.69;101495.03;16126782;19;130039;-54
2023/09/27 14:44:45;;;;;;;2.53;1.70;;;;;;;20.76;49.73;101493.34;16127451;19;130016;-49
2023/09/27 14:50:08;;;;;;;3.97;1.65;;;;;;;20.77;49.27;101477.50;16123201;19;131067;-48
2023/09/27 14:55:30;;;;;;;3.83;1.92;;;;;;;20.75;49.69;101475.81;16117999;19;129684;-53
2023/09/27 15:00:52;;;;;;;2.33;1.50;;;;;;;20.76;49.29;101457.22;16122976;19;129303;-49
2023/09/27 15:06:14;;;;;;;5.78;1.85;;;;;;;20.75;49.67;101466.59;16115729;19;131714;-52
2023/09/27 15:11:36;;;;;;;6.05;2.03;;;;;;;20.74;49.54;101451.00;16120330;19;130422;-49
2023/09/27 15:16:58;;;;;;;2.13;1.50;;;;;;;20.74;49.64;101443.50;16116400;19;129536;-49
2023/09/27 15:22:21;;;;;;;2.67;1.42;;;;;;;20.74;49.64;101439.91;16118350;19;130843;-49
2023/09/27 15:27:43;;;;;;;4.75;1.75;;;;;;;20.73;49.40;101440.97;16120036;19;131248;-50
2023/09/27 15:33:05;;;;;;;3.38;1.70;;;;;;;20.71;49.74;101443.16;16118170;19;130179;-51
2023/09/27 15:38:28;;;;;;;1.83;1.60;;;;;;;20.71;49.27;101437.59;16113649;19;131013;-49
2023/09/27 15:43:50;;;;;;;3.70;1.92;;;;;;;20.71;49.40;101423.69;16120585;19;129773;-48
2023/09/27 15:49:13;;;;;;;2.85;1.52;;;;;;;20.71;49.46;101409.78;16113402;19;131296;-50
2023/09/27 15:54:35;;;;;;;5.30;1.58;;;;;;;20.71;49.48;101418.13;16113902;19;129926;-49
2023/09/27 15:59:58;;;;;;;2.55;1.52;;;;;;;20.69;49.67;101418.41;16117461;19;130920;-53
2023/09/27 16:05:20;;;;;;;3.45;1.70;;;;;;;20.69;49.35;101398.94;16114946;19;130808;-47
2023/09/27 16:10:44;;;;;;;2.58;1.65;;;;;;;20.70;49.83;101402.56;16113302;19;129494;-51
2023/09/27 16:16:15;;;;;;;2.83;1.83;;;;;;;20.68;49.79;101401.94;16115348;19;129558;-52
2023/09/27 16:21:37;;;;;;;5.88;1.60;;;;;;;20.67;49.46;101406.69;16113030;19;130374;-53
2023/09/27 16:27:00;;;;;;;2.97;1.60;;;;;;;20.67;49.40;101397.50;16113704;19;129675;-51
2023/09/27 16:32:22;;;;;;;2.05;1.58;;;;;;;20.66;49.73;101387.47;16114077;19;130864;-50
2023/09/27 16:37:44;;;;;;;3.30;1.75;;;;;;;20.67;49.99;101386.38;16107256;19;130693;-49
2023/09/27 16:43:06;;;;;;;2.08;1.70;;;;;;;20.65;49.99;101364.38;16110525;19;130576;-54
2023/09/27 16:48:28;;;;;;;3.47;1.50;;;;;;;20.65;50.02;101371.88;16110625;19;130754;-52
2023/09/27 16:53:50;;;;;;;3.72;1.55;;;;;;;20.65;49.90;101377.44;16112919;19;129607;-50
2023/09/27 16:59:13;;;;;;;2.40;1.55;;;;;;;20.63;49.83;101362.94;16109374;19;130894;-50
2023/09/27 17:04:38;;;;;;;2.53;1.70;;;;;;;20.62;50.11;101364.03;16107517;19;130754;-51
2023/09/27 17:10:01;;;;;;;2.75;1.90;;;;;;;20.62;49.92;101361.25;16114605;19;131018;-53
2023/09/27 17:15:23;;;;;;;3.67;1.73;;;;;;;20.60;49.92;101355.97;16111119;19;130182;-48
2023/09/27 17:20:46;;;;;;;2.90;1.40;;;;;;;20.59;49.85;101352.31;16108163;19;129634;-51
2023/09/27 17:26:08;;;;;;;5.05;1.55;;;;;;;20.57;50.19;101348.94;16112916;19;130941;-52
2023/09/27 17:31:30;;;;;;;2.38;1.60;;;;;;;20.57;49.96;101348.94;16106276;19;130146;-49
2023/09/27 17:36:52;;;;;;;1.63;1.40;;;;;;;20.57;49.91;101337.00;16109682;19;130885;-49
2023/09/27 17:42:15;;;;;;;3.35;1.83;;;;;;;20.57;50.13;101335.03;16102522;19;129733;-49
2023/09/27 17:47:37;;;;;;;4.55;1.98;;;;;;;20.54;50.58;101332.78;16101057;19;130451;-49
2023/09/27 17:52:59;;;;;;;4.57;1.67;;;;;;;20.60;50.62;101328.16;16106064;19;129496;-51
2023/09/27 17:58:21;;;;;;;3.83;1.50;;;;;;;20.66;50.79;101320.75;16104929;19;129729;-49
2023/09/27 18:03:45;;;;;;;2.88;1.60;;;;;;;20.72;50.86;101322.53;16107228;19;129554;-53
2023/09/27 18:09:07;;;;;;;3.10;1.48;;;;;;;20.75;50.38;101314.53;16108970;19;133286;-50
2023/09/27 18:14:29;;;;;;;5.75;1.83;;;;;;;20.79;50.52;101306.56;16105436;19;129814;-48
2023/09/27 18:19:54;;;;;;;5.03;1.73;;;;;;;20.83;50.58;101306.91;16108531;19;129461;-54
2023/09/27 18:25:16;;;;;;;3.47;1.77;;;;;;;20.85;50.66;101307.50;16110205;19;129875;-52
2023/09/27 18:30:38;;;;;;;4.38;1.77;;;;;;;20.87;50.17;101328.38;16111203;19;130199;-54
2023/09/27 18:36:02;;;;;;;3.97;1.48;;;;;;;20.92;50.43;101332.34;16122109;19;129560;-48
2023/09/27 18:41:24;;;;;;;2.20;1.40;;;;;;;20.94;50.78;101321.81;16127640;19;129810;-51
2023/09/27 18:46:46;;;;;;;2.92;1.67;;;;;;;20.97;50.58;101310.19;16122418;19;130336;-47
2023/09/27 18:52:09;;;;;;;4.70;2.20;;;;;;;20.98;50.57;101304.38;16123633;19;130769;-50
2023/09/27 18:57:30;;;;;;;3.83;1.48;;;;;;;20.98;50.47;101311.88;16123556;19;131201;-50
2023/09/27 19:02:52;;;;;;;4.03;1.50;;;;;;;20.98;50.64;101317.44;16120067;19;131088;-47
2023/09/27 19:08:14;;;;;;;4.65;1.30;;;;;;;20.98;50.57;101314.66;16122396;19;130649;-48
2023/09/27 19:13:37;;;;;;;3.38;1.30;;;;;;;20.99;50.48;101317.16;16119575;19;130518;-48
2023/09/27 19:18:59;;;;;;;9.52;1.77;;;;;;;21.00;50.39;101304.13;16116161;19;130466;-46
2023/09/27 19:24:21;;;;;;;8.98;2.15;;;;;;;21.01;50.67;101295.50;16115952;19;129502;-45
2023/09/27 19:29:44;;;;;;;8.20;1.85;;;;;;;21.02;50.94;101290.81;16115670;19;130753;-51
2023/09/27 19:35:06;;;;;;;8.95;1.60;;;;;;;21.01;50.69;101286.34;16117635;19;131077;-47
2023/09/27 19:40:28;;;;;;;10.80;1.42;;;;;;;20.99;51.06;101278.22;16113696;19;130097;-48
2023/09/27 19:45:50;;;;;;;5.97;1.30;;;;;;;20.99;51.03;101278.22;16115820;19;129535;-48
2023/09/27 19:51:25;;;;;;;7.40;1.33;;;;;;;21.02;50.91;101262.97;16120162;19;129903;-52
2023/09/27 19:56:48;;;;;;;5.53;1.40;;;;;;;20.99;50.48;101253.19;16120548;19;131558;-52
2023/09/27 20:02:10;;;;;;;3.35;1.38;;;;;;;20.99;50.61;101267.09;16114686;19;129695;-48
2023/09/27 20:07:34;;;;;;;10.55;1.50;;;;;;;20.99;50.52;101261.53;16095052;19;129539;-52
2023/09/27 20:12:56;;;;;;;2.88;1.30;;;;;;;20.99;50.52;101260.72;16114134;19;131248;-51
2023/09/27 20:18:18;;;;;;;7.78;1.55;;;;;;;20.99;50.92;101260.72;16110540;19;131060;-47
2023/09/27 20:23:40;;;;;;;3.70;1.30;;;;;;;20.98;50.63;101231.22;16109817;19;130471;-51
2023/09/27 20:29:02;;;;;;;6.25;1.27;;;;;;;20.97;51.06;101235.94;16109640;19;130137;-49
2023/09/27 20:34:24;;;;;;;5.97;1.40;;;;;;;20.96;50.77;101241.75;16103441;19;129582;-49
2023/09/27 20:39:46;;;;;;;2.05;1.30;;;;;;;20.94;50.83;101230.03;16107191;19;129796;-48
2023/09/27 20:45:09;;;;;;;4.07;1.20;;;;;;;20.93;51.13;101229.19;16106687;19;130050;-50
2023/09/27 20:50:31;;;;;;;5.53;1.38;;;;;;;20.90;50.60;101221.34;16105676;19;129822;-51
2023/09/27 20:56:01;;;;;;;3.63;1.38;;;;;;;20.90;50.70;101182.41;16112098;19;130425;-53
2023/09/27 21:01:26;;;;;;;5.07;1.25;;;;;;;20.87;50.68;101178.22;16112122;19;130321;-50
2023/09/27 21:06:49;;;;;;;2.67;1.20;;;;;;;20.87;50.54;101158.75;16111412;19;130285;-51
2023/09/27 21:12:11;;;;;;;3.70;1.10;;;;;;;20.86;50.66;101150.69;16110105;19;129922;-47
2023/09/27 21:17:34;;;;;;;3.80;1.50;;;;;;;20.84;50.71;101148.13;16108727;19;131871;-52
2023/09/27 21:22:56;;;;;;;2.33;1.20;;;;;;;20.84;50.38;101164.81;16107216;19;129415;-47
2023/09/27 21:28:18;;;;;;;2.47;1.13;;;;;;;20.83;50.86;101152.00;16106239;19;129791;-53
2023/09/27 21:33:41;;;;;;;3.72;1.33;;;;;;;20.81;50.61;101145.03;16106805;19;130155;-49
2023/09/27 21:39:03;;;;;;;2.38;0.90;;;;;;;20.81;50.71;101156.97;16109984;19;129867;-49
2023/09/27 21:44:25;;;;;;;3.65;1.23;;;;;;;20.81;50.55;101220.09;16105225;19;131851;-47
2023/09/27 21:49:47;;;;;;;3.10;1.30;;;;;;;20.80;50.66;101210.06;16107000;19;129625;-50
2023/09/27 21:55:09;;;;;;;2.45;1.40;;;;;;;20.78;50.83;101223.38;16105814;19;129576;-50
2023/09/27 22:00:32;;;;;;;1.77;1.05;;;;;;;20.77;50.55;101225.34;16104236;19;129391;-51
2023/09/27 22:05:54;;;;;;;1.50;1.10;;;;;;;20.77;50.33;101230.03;16108433;19;129513;-48
2023/09/27 22:11:17;;;;;;;2.10;1.10;;;;;;;20.75;50.34;101239.47;16120927;19;130562;-50
2023/09/27 22:16:39;;;;;;;3.20;1.27;;;;;;;20.74;50.34;101250.81;16121909;19;131003;-48
2023/09/27 22:22:02;;;;;;;4.07;1.27;;;;;;;20.73;50.48;101247.22;16121492;19;129566;-48
2023/09/27 22:27:26;;;;;;;2.83;1.23;;;;;;;20.72;50.28;101250.22;16114351;19;132009;-51
2023/09/27 22:32:49;;;;;;;4.20;1.20;;;;;;;20.72;50.54;101228.84;16122088;19;129784;-51
2023/09/27 22:38:15;;;;;;;4.10;1.40;;;;;;;20.72;50.32;101228.00;16116278;19;131138;-48
2023/09/27 22:43:37;;;;;;;;;;;;;;;20.68;50.78;101232.38;16117212;19;129733;-48
2023/09/27 22:49:00;;;;;;;1.38;1.05;;;;;;;20.69;50.55;101232.13;16120017;19;131302;-51
2023/09/27 22:54:22;;;;;;;2.72;1.10;;;;;;;20.69;50.77;101225.72;16121066;19;130605;-49
2023/09/27 22:59:45;;;;;;;1.88;1.10;;;;;;;20.68;50.47;101215.69;16123587;19;130277;-52
2023/09/27 23:05:27;;;;;;;2.95;1.30;;;;;;;20.67;50.55;101230.72;16120643;19;133543;-50
2023/09/27 23:10:48;;;;;;;2.67;1.40;;;;;;;20.67;50.46;101231.53;16121890;19;129536;-48
2023/09/27 23:21:48;;;;;;;2.20;1.30;;;;;;;20.67;50.56;101241.81;16116158;19;129652;-48
2023/09/27 23:27:10;;;;;;;1.25;0.95;;;;;;;20.65;50.28;101250.41;16118647;19;131934;-50
2023/09/27 23:32:33;;;;;;;1.35;1.02;;;;;;;20.66;50.43;101242.91;16116551;19;129332;-48
2023/09/27 23:43:41;;;;;;;1.63;1.17;;;;;;;20.65;50.38;101249.56;16109483;19;129680;-54
2023/09/27 23:49:03;;;;;;;1.30;0.88;;;;;;;20.64;50.71;101248.72;16107427;19;130509;-51
2023/09/27 23:54:25;;;;;;;3.85;1.13;;;;;;;20.64;50.41;101248.72;16104801;19;130578;-51
2023/09/27 23:59:51;;;;;;;1.80;0.88;;;;;;;20.64;50.57;101247.88;16109740;19;129937;-47
